createdAt,value
2018-04-02T00:00:19.352Z,1009.23
2018-04-02T00:01:19.215Z,1009.26
2018-04-02T00:02:19.246Z,1009.26
2018-04-02T00:03:19.069Z,1009.27
2018-04-02T00:04:19.062Z,1009.22
2018-04-02T00:05:18.887Z,1009.26
2018-04-02T00:06:18.863Z,1009.22
2018-04-02T00:07:18.746Z,1009.24
2018-04-02T00:08:18.700Z,1009.20
2018-04-02T00:09:18.568Z,1009.24
2018-04-02T00:10:18.647Z,1009.20
2018-04-02T00:11:18.406Z,1009.18
2018-04-02T00:12:18.411Z,1009.15
2018-04-02T00:13:18.277Z,1009.17
2018-04-02T00:14:18.207Z,1009.14
2018-04-02T00:15:18.088Z,1009.09
2018-04-02T00:16:18.119Z,1009.10
2018-04-02T00:17:17.909Z,1009.09
2018-04-02T00:18:17.923Z,1009.11
2018-04-02T00:19:17.760Z,1009.11
2018-04-02T00:20:17.748Z,1009.05
2018-04-02T00:21:17.589Z,1009.10
2018-04-02T00:22:17.565Z,1009.10
2018-04-02T00:23:17.439Z,1009.04
2018-04-02T00:24:17.446Z,1009.07
2018-04-02T00:25:17.266Z,1009.09
2018-04-02T00:26:17.252Z,1009.08
2018-04-02T00:27:17.141Z,1009.06
2018-04-02T00:28:17.100Z,1009.11
2018-04-02T00:29:16.957Z,1009.09
2018-04-02T00:30:17.019Z,1009.08
2018-04-02T00:31:16.781Z,1009.08
2018-04-02T00:32:16.787Z,1009.07
2018-04-02T00:33:16.620Z,1009.05
2018-04-02T00:34:16.598Z,1009.05
2018-04-02T00:35:16.458Z,1009.07
2018-04-02T00:36:16.403Z,1009.06
2018-04-02T00:37:16.284Z,1009.06
2018-04-02T00:39:58.373Z,1009.06
2018-04-02T00:40:58.350Z,1009.03
2018-04-02T00:41:58.196Z,1009.00
2018-04-02T01:08:19.995Z,1008.74
2018-04-02T01:09:20.005Z,1008.72
2018-04-02T01:10:19.847Z,1008.70
2018-04-02T01:11:19.814Z,1008.70
2018-04-02T01:12:20.430Z,1008.69
2018-04-02T01:13:19.613Z,1008.63
2018-04-02T01:14:19.485Z,1008.65
2018-04-02T01:15:19.642Z,1008.64
2018-04-02T01:16:19.327Z,1008.62
2018-04-02T01:17:19.337Z,1008.66
2018-04-02T01:18:19.157Z,1008.64
2018-04-02T01:19:19.137Z,1008.59
2018-04-02T01:20:19.019Z,1008.60
2018-04-02T01:21:19.050Z,1008.59
2018-04-02T01:22:18.853Z,1008.57
2018-04-02T01:23:18.860Z,1008.60
2018-04-02T01:24:18.671Z,1008.58
2018-04-02T01:25:18.737Z,1008.59
2018-04-02T01:26:18.520Z,1008.57
2018-04-02T01:27:18.479Z,1008.56
2018-04-02T01:28:18.353Z,1008.59
2018-04-02T01:29:18.592Z,1008.53
2018-04-02T01:30:18.240Z,1008.56
2018-04-02T01:31:18.907Z,1008.58
2018-04-02T01:32:18.018Z,1008.53
2018-04-02T01:33:18.008Z,1008.54
2018-04-02T01:34:17.873Z,1008.55
2018-04-02T01:35:17.835Z,1008.49
2018-04-02T01:36:17.684Z,1008.52
2018-04-02T01:37:17.723Z,1008.48
2018-04-02T01:38:17.533Z,1008.48
2018-04-02T01:39:17.561Z,1008.48
2018-04-02T01:40:17.384Z,1008.46
2018-04-02T01:41:17.336Z,1008.45
2018-04-02T01:42:17.208Z,1008.47
2018-04-02T01:43:17.249Z,1008.42
2018-04-02T01:44:17.052Z,1008.44
2018-04-02T01:45:17.099Z,1008.42
2018-04-02T01:46:16.894Z,1008.41
2018-04-02T01:47:16.863Z,1008.40
2018-04-02T01:48:16.756Z,1008.42
2018-04-02T01:49:16.675Z,1008.39
2018-04-02T01:50:16.541Z,1008.39
2018-04-02T01:51:16.737Z,1008.40
2018-04-02T01:52:16.398Z,1008.37
2018-04-02T01:53:16.404Z,1008.35
2018-04-02T01:54:16.220Z,1008.31
2018-04-02T01:55:16.198Z,1008.30
2018-04-02T01:56:16.057Z,1008.28
2018-04-02T01:57:16.038Z,1008.29
2018-04-02T01:58:15.891Z,1008.25
2018-04-02T01:59:15.917Z,1008.26
2018-04-02T02:00:15.730Z,1008.24
2018-04-02T02:01:15.764Z,1008.26
2018-04-02T02:02:15.566Z,1008.25
2018-04-02T02:03:15.541Z,1008.26
2018-04-02T02:04:15.409Z,1008.24
2018-04-02T02:05:15.447Z,1008.20
2018-04-02T02:06:15.249Z,1008.20
2018-04-02T02:07:15.297Z,1008.18
2018-04-02T02:08:15.081Z,1008.19
2018-04-02T02:09:15.004Z,1008.20
2018-04-02T02:10:14.919Z,1008.24
2018-04-02T02:11:14.878Z,1008.17
2018-04-02T02:12:14.757Z,1008.16
2018-04-02T02:13:14.723Z,1008.19
2018-04-02T02:14:14.590Z,1008.15
2018-04-02T02:15:14.596Z,1008.13
2018-04-02T02:16:14.414Z,1008.11
2018-04-02T02:17:14.444Z,1008.09
2018-04-02T02:18:14.352Z,1008.09
2018-04-02T02:19:14.210Z,1008.06
2018-04-02T02:20:14.084Z,1008.02
2018-04-02T02:21:14.155Z,1008.00
2018-04-02T02:22:13.945Z,1008.01
2018-04-02T02:23:13.965Z,1007.98
2018-04-02T02:24:13.775Z,1007.99
2018-04-02T02:25:13.740Z,1007.96
2018-04-02T02:26:13.602Z,1007.97
2018-04-02T02:27:13.543Z,1007.98
2018-04-02T02:28:13.447Z,1007.92
2018-04-02T02:29:13.463Z,1007.95
2018-04-02T02:30:13.267Z,1007.96
2018-04-02T02:31:13.265Z,1007.98
2018-04-02T02:32:13.096Z,1007.98
2018-04-02T02:33:13.105Z,1007.95
2018-04-02T02:34:12.940Z,1007.98
2018-04-02T02:35:12.986Z,1008.00
2018-04-02T02:36:12.778Z,1007.96
2018-04-02T02:37:12.795Z,1007.95
2018-04-02T02:38:12.727Z,1007.92
2018-04-02T02:39:12.606Z,1007.90
2018-04-02T02:40:12.438Z,1007.86
2018-04-02T02:41:12.414Z,1007.81
2018-04-02T02:42:12.287Z,1007.81
2018-04-02T02:43:12.255Z,1007.77
2018-04-02T02:44:12.114Z,1007.77
2018-04-02T02:45:12.131Z,1007.78
2018-04-02T02:46:11.947Z,1007.78
2018-04-02T02:47:11.938Z,1007.81
2018-04-02T02:48:11.800Z,1007.76
2018-04-02T02:49:11.785Z,1007.73
2018-04-02T02:50:11.621Z,1007.74
2018-04-02T02:51:11.665Z,1007.80
2018-04-02T02:52:11.458Z,1007.80
2018-04-02T02:53:11.465Z,1007.76
2018-04-02T02:54:11.312Z,1007.78
2018-04-02T02:55:11.284Z,1007.78
2018-04-02T02:56:11.122Z,1007.77
2018-04-02T02:57:11.084Z,1007.72
2018-04-02T02:58:10.960Z,1007.70
2018-04-02T02:59:10.997Z,1007.75
2018-04-02T03:00:10.815Z,1007.63
2018-04-02T03:01:10.816Z,1007.67
2018-04-02T03:02:10.627Z,1007.62
2018-04-02T03:03:10.613Z,1007.60
2018-04-02T03:04:10.483Z,1007.60
2018-04-02T03:05:10.458Z,1007.61
2018-04-02T03:06:10.303Z,1007.61
2018-04-02T03:07:10.330Z,1007.61
2018-04-02T03:08:10.206Z,1007.58
2018-04-02T03:09:10.142Z,1007.58
2018-04-02T03:10:09.987Z,1007.61
2018-04-02T03:11:09.991Z,1007.62
2018-04-02T03:12:09.816Z,1007.57
2018-04-02T03:13:09.766Z,1007.56
2018-04-02T03:14:09.645Z,1007.59
2018-04-02T03:15:09.713Z,1007.59
2018-04-02T03:16:09.477Z,1007.58
2018-04-02T03:17:09.478Z,1007.60
2018-04-02T03:18:09.349Z,1007.59
2018-04-02T03:19:09.298Z,1007.61
2018-04-02T03:20:09.158Z,1007.57
2018-04-02T03:21:09.205Z,1007.59
2018-04-02T03:22:08.982Z,1007.59
2018-04-02T03:23:09.008Z,1007.55
2018-04-02T03:24:08.856Z,1007.58
2018-04-02T03:25:08.843Z,1007.54
2018-04-02T03:26:08.671Z,1007.55
2018-04-02T03:27:08.614Z,1007.57
2018-04-02T03:28:08.482Z,1007.60
2018-04-02T03:29:08.529Z,1007.63
2018-04-02T03:30:08.343Z,1007.65
2018-04-02T03:31:08.337Z,1007.59
2018-04-02T03:32:08.157Z,1007.61
2018-04-02T03:33:08.152Z,1007.56
2018-04-02T03:34:07.996Z,1007.54
2018-04-02T03:35:08.001Z,1007.53
2018-04-02T03:36:07.852Z,1007.54
2018-04-02T03:37:07.878Z,1007.50
2018-04-02T03:38:07.661Z,1007.52
2018-04-02T03:39:07.668Z,1007.51
2018-04-02T03:40:07.493Z,1007.50
2018-04-02T03:41:07.525Z,1007.40
2018-04-02T03:42:07.343Z,1007.43
2018-04-02T03:43:07.299Z,1007.41
2018-04-02T03:44:07.292Z,1007.40
2018-04-02T03:45:07.197Z,1007.42
2018-04-02T03:46:07.027Z,1007.39
2018-04-02T03:47:07.952Z,1007.32
2018-04-02T03:48:06.836Z,1007.36
2018-04-02T03:49:06.826Z,1007.35
2018-04-02T03:50:06.687Z,1007.29
2018-04-02T03:51:06.728Z,1007.30
2018-04-02T03:52:06.523Z,1007.30
2018-04-02T03:53:06.565Z,1007.25
2018-04-02T03:54:06.350Z,1007.26
2018-04-02T03:55:06.352Z,1007.24
2018-04-02T03:56:06.188Z,1007.26
2018-04-02T03:57:06.161Z,1007.28
2018-04-02T03:58:06.043Z,1007.30
2018-04-02T03:59:06.085Z,1007.30
2018-04-02T04:00:05.860Z,1007.26
2018-04-02T04:01:05.878Z,1007.30
2018-04-02T04:02:05.721Z,1007.30
2018-04-02T04:03:05.687Z,1007.24
2018-04-02T04:04:05.640Z,1007.26
2018-04-02T04:05:05.486Z,1007.25
2018-04-02T04:06:05.362Z,1007.22
2018-04-02T04:07:05.490Z,1007.22
2018-04-02T04:08:05.207Z,1007.23
2018-04-02T04:09:05.251Z,1007.26
2018-04-02T04:10:05.057Z,1007.20
2018-04-02T04:11:05.014Z,1007.23
2018-04-02T04:12:04.885Z,1007.17
2018-04-02T04:13:04.827Z,1007.16
2018-04-02T04:14:04.699Z,1007.15
2018-04-02T04:15:04.738Z,1007.14
2018-04-02T04:16:04.542Z,1007.14
2018-04-02T04:17:04.575Z,1007.16
2018-04-02T04:18:04.388Z,1007.14
2018-04-02T04:19:04.362Z,1007.14
2018-04-02T04:20:04.207Z,1007.15
2018-04-02T04:21:04.162Z,1007.13
2018-04-02T04:22:04.063Z,1007.14
2018-04-02T04:23:04.079Z,1007.12
2018-04-02T04:24:03.883Z,1007.17
2018-04-02T04:25:03.889Z,1007.11
2018-04-02T04:26:03.726Z,1007.08
2018-04-02T04:27:03.734Z,1007.13
2018-04-02T04:28:03.566Z,1007.13
2018-04-02T04:29:03.493Z,1007.05
2018-04-02T04:30:03.399Z,1007.10
2018-04-02T04:31:03.440Z,1007.07
2018-04-02T04:32:03.238Z,1007.05
2018-04-02T04:33:03.249Z,1007.03
2018-04-02T04:34:03.053Z,1007.02
2018-04-02T04:35:03.024Z,1006.99
2018-04-02T04:36:02.882Z,1007.00
2018-04-02T04:37:02.950Z,1006.99
2018-04-02T04:38:02.745Z,1007.05
2018-04-02T04:39:02.742Z,1007.02
2018-04-02T04:40:02.564Z,1007.03
2018-04-02T04:41:02.553Z,1007.06
2018-04-02T04:42:02.396Z,1006.98
2018-04-02T04:43:02.388Z,1007.00
2018-04-02T04:44:02.225Z,1006.98
2018-04-02T04:45:02.266Z,1006.97
2018-04-02T04:46:02.058Z,1006.97
2018-04-02T04:47:02.091Z,1006.95
2018-04-02T04:48:01.907Z,1006.97
2018-04-02T04:49:01.890Z,1006.90
2018-04-02T04:50:01.735Z,1006.93
2018-04-02T04:51:01.702Z,1006.90
2018-04-02T04:52:01.562Z,1006.88
2018-04-02T04:53:01.536Z,1006.90
2018-04-02T04:54:01.438Z,1006.92
2018-04-02T04:55:01.421Z,1006.94
2018-04-02T04:56:01.237Z,1006.93
2018-04-02T04:57:01.254Z,1006.96
2018-04-02T04:58:01.071Z,1006.92
2018-04-02T04:59:01.058Z,1006.93
2018-04-02T05:00:00.906Z,1006.88
2018-04-02T05:01:00.941Z,1006.90
2018-04-02T05:02:00.744Z,1006.94
2018-04-02T05:03:00.790Z,1006.90
2018-04-02T05:04:00.582Z,1006.87
2018-04-02T05:05:00.559Z,1006.90
2018-04-02T05:06:00.411Z,1006.84
2018-04-02T05:07:00.370Z,1006.80
2018-04-02T05:08:00.272Z,1006.78
2018-04-02T05:09:00.307Z,1006.81
2018-04-02T05:10:00.966Z,1006.78
2018-04-02T05:11:00.094Z,1006.74
2018-04-02T05:11:59.921Z,1006.78
2018-04-02T05:12:59.898Z,1006.76
2018-04-02T05:13:59.770Z,1006.78
2018-04-02T05:14:59.707Z,1006.78
2018-04-02T05:15:59.588Z,1006.80
2018-04-02T05:16:59.615Z,1006.73
2018-04-02T05:17:59.422Z,1006.76
2018-04-02T05:18:59.462Z,1006.77
2018-04-02T05:19:59.259Z,1006.76
2018-04-02T05:20:59.262Z,1006.79
2018-04-02T05:21:59.100Z,1006.78
2018-04-02T05:22:59.040Z,1006.66
2018-04-02T05:23:58.916Z,1006.74
2018-04-02T05:24:58.985Z,1006.72
2018-04-02T05:25:58.756Z,1006.72
2018-04-02T05:26:58.768Z,1006.76
2018-04-02T05:27:58.591Z,1006.71
2018-04-02T05:28:58.568Z,1006.75
2018-04-02T05:29:58.547Z,1006.71
2018-04-02T05:30:58.425Z,1006.70
2018-04-02T05:31:58.269Z,1006.74
2018-04-02T05:32:58.304Z,1006.74
2018-04-02T05:33:58.091Z,1006.69
2018-04-02T05:34:58.141Z,1006.72
2018-04-02T05:35:57.939Z,1006.71
2018-04-02T05:36:57.914Z,1006.61
2018-04-02T05:37:57.784Z,1006.67
2018-04-02T05:38:57.743Z,1006.63
2018-04-02T05:39:57.604Z,1006.66
2018-04-02T05:40:57.622Z,1006.61
2018-04-02T05:41:57.444Z,1006.61
2018-04-02T05:42:57.431Z,1006.60
2018-04-02T05:43:57.311Z,1006.60
2018-04-02T05:44:57.243Z,1006.62
2018-04-02T05:45:57.109Z,1006.62
2018-04-02T05:46:57.147Z,1006.58
2018-04-02T05:47:56.931Z,1006.57
2018-04-02T05:48:56.990Z,1006.58
2018-04-02T05:49:56.872Z,1006.59
2018-04-02T05:50:56.798Z,1006.56
2018-04-02T05:51:56.609Z,1006.61
2018-04-02T05:52:56.575Z,1006.57
2018-04-02T05:53:56.447Z,1006.58
2018-04-02T05:54:56.417Z,1006.59
2018-04-02T05:55:56.280Z,1006.55
2018-04-02T05:56:56.298Z,1006.55
2018-04-02T05:57:56.133Z,1006.58
2018-04-02T05:58:56.108Z,1006.51
2018-04-02T05:59:56.069Z,1006.56
2018-04-02T06:00:55.919Z,1006.57
2018-04-02T06:01:55.788Z,1006.58
2018-04-02T06:02:55.866Z,1006.58
2018-04-02T06:03:55.622Z,1006.56
2018-04-02T06:04:55.639Z,1006.52
2018-04-02T06:05:55.475Z,1006.57
2018-04-02T06:06:55.441Z,1006.54
2018-04-02T06:07:55.289Z,1006.56
2018-04-02T06:08:55.246Z,1006.52
2018-04-02T06:09:55.148Z,1006.58
2018-04-02T06:10:55.207Z,1006.55
2018-04-02T06:11:54.979Z,1006.52
2018-04-02T06:12:54.981Z,1006.54
2018-04-02T06:13:54.818Z,1006.50
2018-04-02T06:14:54.778Z,1006.53
2018-04-02T06:15:54.658Z,1006.44
2018-04-02T06:16:54.708Z,1006.44
2018-04-02T06:17:54.472Z,1006.45
2018-04-02T06:18:54.501Z,1006.45
2018-04-02T06:19:54.321Z,1006.45
2018-04-02T06:20:54.356Z,1006.40
2018-04-02T06:21:54.135Z,1006.40
2018-04-02T06:22:54.127Z,1006.46
2018-04-02T06:23:53.986Z,1006.45
2018-04-02T06:24:54.026Z,1006.41
2018-04-02T06:25:53.843Z,1006.41
2018-04-02T06:26:53.841Z,1006.45
2018-04-02T06:27:53.650Z,1006.42
2018-04-02T06:28:53.638Z,1006.41
2018-04-02T06:29:53.484Z,1006.42
2018-04-02T06:30:53.448Z,1006.35
2018-04-02T06:31:53.347Z,1006.39
2018-04-02T06:32:53.355Z,1006.40
2018-04-02T06:33:53.187Z,1006.37
2018-04-02T06:34:53.162Z,1006.45
2018-04-02T06:35:52.996Z,1006.37
2018-04-02T06:36:53.015Z,1006.38
2018-04-02T06:37:52.828Z,1006.35
2018-04-02T06:38:52.794Z,1006.38
2018-04-02T06:39:52.672Z,1006.34
2018-04-02T06:40:52.733Z,1006.39
2018-04-02T06:41:52.522Z,1006.40
2018-04-02T06:42:52.502Z,1006.33
2018-04-02T06:43:52.350Z,1006.35
2018-04-02T06:44:52.308Z,1006.32
2018-04-02T06:45:52.176Z,1006.39
2018-04-02T06:46:52.161Z,1006.29
2018-04-02T06:47:52.038Z,1006.31
2018-04-02T06:48:52.240Z,1006.30
2018-04-02T06:49:51.855Z,1006.28
2018-04-02T06:50:52.462Z,1006.27
2018-04-02T06:51:51.725Z,1006.27
2018-04-02T06:52:51.773Z,1006.27
2018-04-02T06:53:51.543Z,1006.25
2018-04-02T06:54:51.674Z,1006.27
2018-04-02T06:55:51.485Z,1006.26
2018-04-02T06:56:51.413Z,1006.23
2018-04-02T06:57:51.203Z,1006.24
2018-04-02T06:58:51.183Z,1006.24
2018-04-02T06:59:51.076Z,1006.22
2018-04-02T07:00:50.986Z,1006.33
2018-04-02T07:01:50.872Z,1006.23
2018-04-02T07:02:50.894Z,1006.22
2018-04-02T07:03:50.707Z,1006.22
2018-04-02T07:04:50.699Z,1006.14
2018-04-02T07:05:50.562Z,1006.22
2018-04-02T07:06:50.561Z,1006.19
2018-04-02T07:07:50.377Z,1006.21
2018-04-02T07:08:50.426Z,1006.19
2018-04-02T07:09:50.215Z,1006.18
2018-04-02T07:10:50.253Z,1006.18
2018-04-02T07:11:50.548Z,1006.22
2018-04-02T07:12:50.145Z,1006.17
2018-04-02T07:13:49.884Z,1006.17
2018-04-02T07:14:49.855Z,1006.14
2018-04-02T07:15:49.737Z,1006.16
2018-04-02T07:16:49.786Z,1006.11
2018-04-02T07:17:49.571Z,1006.14
2018-04-02T07:18:49.584Z,1006.14
2018-04-02T07:19:49.418Z,1006.12
2018-04-02T07:20:49.421Z,1006.15
2018-04-02T07:21:49.263Z,1006.12
2018-04-02T07:22:49.186Z,1006.09
2018-04-02T07:23:49.069Z,1006.11
2018-04-02T07:24:49.101Z,1006.08
2018-04-02T07:25:49.005Z,1006.11
2018-04-02T07:26:48.945Z,1006.05
2018-04-02T07:27:48.748Z,1006.03
2018-04-02T07:28:48.768Z,1006.13
2018-04-02T07:29:48.588Z,1006.06
2018-04-02T07:30:48.620Z,1006.14
2018-04-02T07:31:48.446Z,1006.11
2018-04-02T07:32:48.469Z,1006.04
2018-04-02T07:33:48.933Z,1006.01
2018-04-02T07:34:48.253Z,1006.01
2018-04-02T07:35:48.088Z,1006.01
2018-04-02T07:36:48.057Z,1005.97
2018-04-02T07:37:47.948Z,1006.00
2018-04-02T07:38:47.959Z,1005.93
2018-04-02T07:39:47.779Z,1006.01
2018-04-02T07:40:47.707Z,1005.92
2018-04-02T07:41:47.612Z,1006.00
2018-04-02T07:42:47.605Z,1005.93
2018-04-02T07:43:47.444Z,1005.88
2018-04-02T07:44:47.377Z,1005.84
2018-04-02T07:45:47.288Z,1005.84
2018-04-02T07:46:47.227Z,1005.85
2018-04-02T07:47:47.153Z,1005.88
2018-04-02T07:48:47.067Z,1005.82
2018-04-02T07:49:46.975Z,1005.89
2018-04-02T07:50:46.915Z,1005.81
2018-04-02T07:51:46.792Z,1005.80
2018-04-02T07:52:46.734Z,1005.82
2018-04-02T07:53:46.635Z,1005.78
2018-04-02T07:54:46.673Z,1005.79
2018-04-02T07:55:46.472Z,1005.74
2018-04-02T07:56:46.454Z,1005.77
2018-04-02T07:57:46.304Z,1005.76
2018-04-02T07:58:46.318Z,1005.81
2018-04-02T07:59:46.171Z,1005.78
2018-04-02T08:00:46.083Z,1005.74
2018-04-02T08:01:45.996Z,1005.81
2018-04-02T08:02:46.002Z,1005.79
2018-04-02T08:03:45.848Z,1005.80
2018-04-02T08:04:45.873Z,1005.81
2018-04-02T08:05:45.668Z,1005.78
2018-04-02T08:06:45.595Z,1005.84
2018-04-02T08:07:45.522Z,1005.81
2018-04-02T08:08:45.523Z,1005.86
2018-04-02T08:09:45.352Z,1005.87
2018-04-02T08:10:45.311Z,1005.80
2018-04-02T08:11:45.187Z,1005.80
2018-04-02T08:12:45.261Z,1005.79
2018-04-02T08:13:45.023Z,1005.84
2018-04-02T08:14:45.077Z,1005.77
2018-04-02T08:15:44.878Z,1005.82
2018-04-02T08:16:44.856Z,1005.72
2018-04-02T08:17:44.699Z,1005.75
2018-04-02T08:18:44.639Z,1005.67
2018-04-02T08:19:44.556Z,1005.74
2018-04-02T08:20:44.543Z,1005.69
2018-04-02T08:21:44.392Z,1005.71
2018-04-02T08:22:44.366Z,1005.68
2018-04-02T08:23:44.223Z,1005.64
2018-04-02T08:24:44.211Z,1005.63
2018-04-02T08:25:44.049Z,1005.70
2018-04-02T08:26:44.083Z,1005.71
2018-04-02T08:27:43.907Z,1005.79
2018-04-02T08:28:44.107Z,1005.71
2018-04-02T08:29:43.749Z,1005.68
2018-04-02T08:30:43.695Z,1005.60
2018-04-02T08:31:43.581Z,1005.72
2018-04-02T08:32:43.536Z,1005.67
2018-04-02T08:33:43.417Z,1005.68
2018-04-02T08:34:43.364Z,1005.56
2018-04-02T08:35:44.537Z,1005.56
2018-04-02T08:36:43.240Z,1005.55
2018-04-02T08:37:43.103Z,1005.66
2018-04-02T08:38:43.214Z,1005.58
2018-04-02T08:39:42.939Z,1005.60
2018-04-02T08:40:43.023Z,1005.57
2018-04-02T08:41:43.508Z,1005.53
2018-04-02T08:42:42.757Z,1005.57
2018-04-02T08:43:42.617Z,1005.66
2018-04-02T08:44:42.680Z,1005.59
2018-04-02T08:45:42.473Z,1005.60
2018-04-02T08:46:42.486Z,1005.63
2018-04-02T08:47:42.302Z,1005.66
2018-04-02T08:48:42.286Z,1005.60
2018-04-02T08:49:42.134Z,1005.58
2018-04-02T08:50:42.134Z,1005.63
2018-04-02T08:51:41.973Z,1005.59
2018-04-02T08:52:42.002Z,1005.63
2018-04-02T08:53:41.811Z,1005.60
2018-04-02T08:54:41.805Z,1005.55
2018-04-02T08:55:41.674Z,1005.58
2018-04-02T08:56:41.616Z,1005.53
2018-04-02T08:57:41.499Z,1005.56
2018-04-02T08:58:41.556Z,1005.63
2018-04-02T08:59:41.339Z,1005.68
2018-04-02T09:00:42.044Z,1005.71
2018-04-02T09:01:41.175Z,1005.68
2018-04-02T09:02:41.140Z,1005.69
2018-04-02T09:03:41.011Z,1005.68
2018-04-02T09:04:41.049Z,1005.64
2018-04-02T09:05:40.886Z,1005.69
2018-04-02T09:06:40.854Z,1005.70
2018-04-02T09:07:40.698Z,1005.54
2018-04-02T09:08:40.674Z,1005.49
2018-04-02T09:09:40.542Z,1005.52
2018-04-02T09:10:40.577Z,1005.53
2018-04-02T09:11:40.397Z,1005.51
2018-04-02T09:12:40.384Z,1005.51
2018-04-02T09:13:40.237Z,1005.43
2018-04-02T09:14:40.200Z,1005.44
2018-04-02T09:15:40.067Z,1005.38
2018-04-02T09:16:40.138Z,1005.34
2018-04-02T09:17:39.930Z,1005.41
2018-04-02T09:18:39.919Z,1005.33
2018-04-02T09:19:39.880Z,1005.28
2018-04-02T09:20:39.817Z,1005.29
2018-04-02T09:21:39.620Z,1005.26
2018-04-02T09:22:39.637Z,1005.29
2018-04-02T09:23:39.430Z,1005.28
2018-04-02T09:24:39.456Z,1005.24
2018-04-02T09:25:39.289Z,1005.29
2018-04-02T09:26:39.288Z,1005.30
2018-04-02T09:27:39.132Z,1005.22
2018-04-02T09:28:39.162Z,1005.14
2018-04-02T09:29:38.963Z,1005.13
2018-04-02T09:30:38.977Z,1005.18
2018-04-02T09:31:38.841Z,1005.09
2018-04-02T09:32:38.782Z,1005.12
2018-04-02T09:33:38.648Z,1005.15
2018-04-02T09:34:38.689Z,1005.15
2018-04-02T09:35:38.492Z,1005.18
2018-04-02T09:36:38.512Z,1005.12
2018-04-02T09:37:38.341Z,1005.11
2018-04-02T09:38:38.307Z,1005.10
2018-04-02T09:39:38.353Z,1005.16
2018-04-02T09:40:38.212Z,1005.17
2018-04-02T09:41:38.009Z,1005.11
2018-04-02T09:42:38.075Z,1005.08
2018-04-02T09:43:37.877Z,1005.10
2018-04-02T09:44:37.830Z,1005.06
2018-04-02T09:45:37.690Z,1004.99
2018-04-02T09:46:37.753Z,1004.99
2018-04-02T09:47:37.562Z,1005.00
2018-04-02T09:48:37.549Z,1005.02
2018-04-02T09:49:37.376Z,1004.99
2018-04-02T09:50:37.379Z,1004.94
2018-04-02T09:51:37.223Z,1004.95
2018-04-02T09:52:38.235Z,1004.83
2018-04-02T09:53:37.119Z,1004.71
2018-04-02T09:54:37.094Z,1004.74
2018-04-02T09:55:36.914Z,1004.71
2018-04-02T09:56:36.951Z,1004.72
2018-04-02T09:57:36.744Z,1004.64
2018-04-02T09:58:36.739Z,1004.80
2018-04-02T09:59:36.590Z,1004.61
2018-04-02T10:00:36.606Z,1004.65
2018-04-02T10:01:36.506Z,1004.69
2018-04-02T10:02:36.419Z,1004.68
2018-04-02T10:03:36.294Z,1004.69
2018-04-02T10:04:36.493Z,1004.65
2018-04-02T10:05:36.114Z,1004.68
2018-04-02T10:06:36.134Z,1004.63
2018-04-02T10:07:35.965Z,1004.64
2018-04-02T10:08:35.986Z,1004.58
2018-04-02T10:09:35.806Z,1004.66
2018-04-02T10:10:35.896Z,1004.64
2018-04-02T10:11:35.644Z,1004.56
2018-04-02T10:12:35.660Z,1004.56
2018-04-02T10:13:35.517Z,1004.54
2018-04-02T10:14:35.528Z,1004.63
2018-04-02T10:15:35.393Z,1004.64
2018-04-02T10:16:35.383Z,1004.64
2018-04-02T10:17:35.187Z,1004.57
2018-04-02T10:18:35.194Z,1004.95
2018-04-02T10:19:35.025Z,1004.97
2018-04-02T10:20:36.060Z,1004.82
2018-04-02T10:21:34.871Z,1004.97
2018-04-02T10:22:34.915Z,1004.97
2018-04-02T10:23:34.714Z,1004.83
2018-04-02T10:24:34.715Z,1005.01
2018-04-02T10:25:34.588Z,1004.85
2018-04-02T10:26:34.520Z,1004.89
2018-04-02T10:27:34.416Z,1004.73
2018-04-02T10:28:34.439Z,1004.58
2018-04-02T10:29:34.298Z,1004.18
2018-04-02T10:30:34.278Z,1004.23
2018-04-02T10:31:34.104Z,1004.21
2018-04-02T10:32:34.187Z,1004.28
2018-04-02T10:33:33.958Z,1004.25
2018-04-02T10:34:33.972Z,1004.22
2018-04-02T10:35:33.814Z,1004.13
2018-04-02T10:36:34.028Z,1004.12
2018-04-02T10:37:33.637Z,1004.08
2018-04-02T10:38:33.681Z,1004.18
2018-04-02T10:39:33.519Z,1004.17
2018-04-02T10:40:33.536Z,1004.16
2018-04-02T10:41:33.351Z,1004.15
2018-04-02T10:42:33.301Z,1004.11
2018-04-02T10:43:33.215Z,1004.18
2018-04-02T10:44:33.205Z,1004.03
2018-04-02T10:45:33.062Z,1004.11
2018-04-02T10:46:33.047Z,1004.06
2018-04-02T10:47:32.891Z,1004.08
2018-04-02T10:48:32.859Z,1004.13
2018-04-02T10:49:32.734Z,1004.11
2018-04-02T10:50:32.737Z,1004.03
2018-04-02T10:51:32.602Z,1004.03
2018-04-02T10:52:32.568Z,1004.13
2018-04-02T10:53:32.411Z,1004.13
2018-04-02T10:54:32.465Z,1004.21
2018-04-02T10:55:32.361Z,1004.10
2018-04-02T10:56:32.313Z,1004.11
2018-04-02T10:57:32.118Z,1004.08
2018-04-02T10:58:32.110Z,1003.95
2018-04-02T10:59:32.044Z,1004.07
2018-04-02T11:00:31.990Z,1003.95
2018-04-02T11:01:31.790Z,1003.88
2018-04-02T11:02:31.816Z,1003.85
2018-04-02T11:03:31.638Z,1003.94
2018-04-02T11:04:31.647Z,1003.80
2018-04-02T11:05:31.496Z,1003.78
2018-04-02T11:06:31.509Z,1003.82
2018-04-02T11:07:31.347Z,1003.78
2018-04-02T11:08:31.336Z,1003.68
2018-04-02T11:09:31.160Z,1003.81
2018-04-02T11:10:31.132Z,1003.70
2018-04-02T11:11:31.004Z,1003.67
2018-04-02T11:12:31.107Z,1003.79
2018-04-02T11:13:30.850Z,1003.59
2018-04-02T11:14:30.888Z,1003.53
2018-04-02T11:15:30.704Z,1003.48
2018-04-02T11:16:30.656Z,1003.44
2018-04-02T11:17:30.549Z,1003.32
2018-04-02T11:18:30.561Z,1003.38
2018-04-02T11:19:30.377Z,1003.30
2018-04-02T11:20:30.403Z,1003.36
2018-04-02T11:21:30.228Z,1003.24
2018-04-02T11:22:30.181Z,1003.15
2018-04-02T11:23:30.102Z,1003.11
2018-04-02T11:26:11.980Z,1003.11
2018-04-02T11:27:12.011Z,1003.13
2018-04-02T11:28:11.865Z,1003.01
2018-04-02T11:29:11.836Z,1003.06
2018-04-02T11:30:12.587Z,1003.12
2018-04-02T11:31:11.712Z,1003.05
2018-04-02T11:32:11.577Z,1003.04
2018-04-02T11:33:11.521Z,1003.01
2018-04-02T11:34:11.359Z,1002.99
2018-04-02T11:35:11.435Z,1003.00
2018-04-02T11:36:11.190Z,1002.98
2018-04-02T11:37:11.237Z,1002.93
2018-04-02T11:38:11.036Z,1002.95
2018-04-02T11:39:11.103Z,1002.91
2018-04-02T11:40:10.875Z,1002.97
2018-04-02T11:41:10.854Z,1002.97
2018-04-02T11:42:10.718Z,1002.89
2018-04-02T11:43:10.768Z,1002.93
2018-04-02T11:44:10.581Z,1002.89
2018-04-02T11:45:10.598Z,1002.89
2018-04-02T11:46:10.402Z,1003.25
2018-04-02T11:47:10.385Z,1003.25
2018-04-02T11:48:10.265Z,1003.07
2018-04-02T11:49:10.334Z,1003.02
2018-04-02T11:50:10.114Z,1003.02
2018-04-02T11:51:10.137Z,1002.90
2018-04-02T11:52:09.963Z,1002.93
2018-04-02T11:53:21.213Z,1002.91
2018-04-02T11:54:09.787Z,1002.87
2018-04-02T11:55:09.825Z,1002.89
2018-04-02T11:56:09.617Z,1003.03
2018-04-02T11:57:09.655Z,1003.01
2018-04-02T11:58:10.042Z,1003.02
2018-04-02T11:59:09.439Z,1002.98
2018-04-02T12:00:09.317Z,1002.97
2018-04-02T12:01:09.394Z,1003.03
2018-04-02T12:02:09.173Z,1002.90
2018-04-02T12:03:09.159Z,1002.90
2018-04-02T12:04:09.000Z,1002.82
2018-04-02T12:05:08.987Z,1002.89
2018-04-02T12:06:08.837Z,1002.87
2018-04-02T12:07:08.912Z,1002.86
2018-04-02T12:08:08.706Z,1002.69
2018-04-02T12:09:08.701Z,1002.79
2018-04-02T12:10:08.549Z,1002.65
2018-04-02T12:11:08.628Z,1002.70
2018-04-02T12:12:08.397Z,1002.59
2018-04-02T12:13:08.404Z,1002.62
2018-04-02T12:14:08.218Z,1002.68
2018-04-02T12:15:08.212Z,1002.73
2018-04-02T12:16:08.055Z,1002.56
2018-04-02T12:17:08.062Z,1002.72
2018-04-02T12:18:07.924Z,1002.57
2018-04-02T12:19:07.935Z,1002.59
2018-04-02T12:20:07.748Z,1002.40
2018-04-02T12:21:07.802Z,1002.67
2018-04-02T12:22:07.589Z,1002.53
2018-04-02T12:23:07.576Z,1002.49
2018-04-02T12:24:07.435Z,1002.52
2018-04-02T12:25:07.455Z,1002.56
2018-04-02T12:26:07.326Z,1002.58
2018-04-02T12:27:07.272Z,1002.46
2018-04-02T12:28:07.150Z,1002.41
2018-04-02T12:29:07.180Z,1002.41
2018-04-02T12:30:06.967Z,1002.54
2018-04-02T12:31:06.982Z,1002.36
2018-04-02T12:32:06.876Z,1002.41
2018-04-02T12:33:07.852Z,1002.35